Time;durP1;ratioP1;P1;durP2;ratioP2;P2;SDS_P1;SDS_P2;PMS_P1;PMS_P2;Temp;Humidity;BMP_temperature;BMP_pressure;BME280_temperature;BME280_humidity;BME280_pressure;Samples;Min_cycle;Max_cycle;Signal;HPM_P1;HPM_P2
2023/06/18 00:00:43;;;;;;;8.73;6.43;;;11.00;99.90;;;;;;4371052;28;658126;-71
2023/06/18 00:03:30;;;;;;;9.80;7.30;;;10.90;99.90;;;;;;4364310;28;655202;-72
2023/06/18 00:06:19;;;;;;;10.90;7.53;;;10.90;99.90;;;;;;4389352;28;656424;-72
2023/06/18 00:09:07;;;;;;;10.23;7.10;;;10.90;99.90;;;;;;4365148;28;657942;-71
2023/06/18 00:11:54;;;;;;;8.80;7.03;;;10.80;99.90;;;;;;4372433;28;657637;-71
2023/06/18 00:14:41;;;;;;;9.73;7.63;;;10.80;99.90;;;;;;4356625;28;656078;-72
2023/06/18 00:17:28;;;;;;;10.07;7.60;;;10.80;99.90;;;;;;4376147;28;656127;-71
2023/06/18 00:20:16;;;;;;;10.30;7.67;;;10.80;99.90;;;;;;4364144;28;656594;-72
2023/06/18 00:23:05;;;;;;;11.03;7.40;;;10.80;99.90;;;;;;4383665;28;657396;-71
2023/06/18 00:25:52;;;;;;;11.10;8.13;;;10.80;99.90;;;;;;4351123;28;657383;-72
2023/06/18 00:28:39;;;;;;;12.70;8.47;;;10.80;99.90;;;;;;4354408;28;656488;-71
2023/06/18 00:31:27;;;;;;;15.47;9.10;;;10.80;99.90;;;;;;4343489;28;655917;-72
2023/06/18 00:34:15;;;;;;;13.80;9.83;;;10.80;99.90;;;;;;4365788;28;656713;-71
2023/06/18 00:37:03;;;;;;;16.37;9.70;;;10.80;99.90;;;;;;4343775;28;657570;-71
2023/06/18 00:39:52;;;;;;;16.70;10.57;;;10.80;99.90;;;;;;4356559;28;656762;-72
2023/06/18 00:42:39;;;;;;;19.60;10.93;;;10.80;99.90;;;;;;4365741;28;657237;-71
2023/06/18 00:45:28;;;;;;;16.23;11.40;;;10.80;99.90;;;;;;4341913;28;658233;-72
2023/06/18 00:48:17;;;;;;;15.43;11.20;;;10.70;99.90;;;;;;4335960;28;658082;-72
2023/06/18 00:51:04;;;;;;;13.33;9.93;;;10.70;99.90;;;;;;4366203;28;657815;-71
2023/06/18 00:53:51;;;;;;;18.17;10.20;;;10.70;99.90;;;;;;4346916;28;657222;-72
2023/06/18 00:56:40;;;;;;;13.83;10.20;;;10.70;99.90;;;;;;4367438;28;658371;-72
2023/06/18 00:59:27;;;;;;;17.30;9.87;;;10.60;99.90;;;;;;4343365;28;657937;-71
2023/06/18 01:02:23;;;;;;;17.97;10.13;;;10.60;99.90;;;;;;4364937;28;656954;-72
2023/06/18 01:05:10;;;;;;;15.33;10.60;;;10.60;99.90;;;;;;4319160;28;657825;-72
2023/06/18 01:07:59;;;;;;;16.60;10.53;;;10.50;99.90;;;;;;4371944;28;659757;-72
2023/06/18 01:10:46;;;;;;;15.63;10.70;;;10.60;99.90;;;;;;4345022;28;657682;-72
2023/06/18 01:13:36;;;;;;;15.87;11.17;;;10.60;99.90;;;;;;4365734;28;657782;-72
2023/06/18 01:16:24;;;;;;;18.43;11.80;;;10.50;99.90;;;;;;4333331;28;658265;-71
2023/06/18 01:19:11;;;;;;;17.07;11.53;;;10.50;99.90;;;;;;4347523;28;657632;-71
2023/06/18 01:22:01;;;;;;;18.73;11.77;;;10.50;99.90;;;;;;4364198;28;658720;-71
2023/06/18 01:24:52;;;;;;;21.93;12.33;;;10.50;99.90;;;;;;4338761;28;657933;-72
2023/06/18 01:27:41;;;;;;;21.10;12.63;;;10.50;99.90;;;;;;4337577;28;658840;-72
2023/06/18 01:30:29;;;;;;;19.97;12.43;;;10.50;99.90;;;;;;4343723;28;658090;-71
2023/06/18 01:33:17;;;;;;;20.73;12.60;;;10.40;99.90;;;;;;4344750;28;658520;-72
2023/06/18 01:36:05;;;;;;;17.83;12.17;;;10.40;99.90;;;;;;4368742;28;657746;-71
2023/06/18 01:38:52;;;;;;;17.90;11.67;;;10.40;99.90;;;;;;4347007;28;658912;-71
2023/06/18 01:41:39;;;;;;;19.47;11.33;;;10.30;99.90;;;;;;4355227;28;657638;-72
2023/06/18 01:44:27;;;;;;;17.67;11.17;;;10.40;99.90;;;;;;4350207;28;658106;-72
2023/06/18 01:47:16;;;;;;;19.23;12.02;;;10.40;99.90;;;;;;4368606;28;659171;-72
2023/06/18 01:50:03;;;;;;;18.77;11.90;;;10.40;99.90;;;;;;4342486;28;658269;-72
2023/06/18 01:52:51;;;;;;;17.33;11.73;;;10.40;99.90;;;;;;4350333;28;657458;-72
2023/06/18 01:55:38;;;;;;;21.23;13.80;;;10.40;99.90;;;;;;4371132;28;658187;-71
2023/06/18 01:58:25;;;;;;;16.73;11.67;;;10.50;99.90;;;;;;4342743;28;657326;-72
2023/06/18 02:01:13;;;;;;;19.27;11.83;;;10.50;99.90;;;;;;4367269;28;658339;-71
2023/06/18 02:04:02;;;;;;;17.90;12.60;;;10.40;99.90;;;;;;4351749;28;657463;-72
2023/06/18 02:06:49;;;;;;;20.73;13.50;;;10.50;99.90;;;;;;4368764;28;657763;-72
2023/06/18 02:09:36;;;;;;;22.17;14.47;;;10.40;99.90;;;;;;4349272;28;657290;-72
2023/06/18 02:12:23;;;;;;;16.67;12.27;;;10.50;99.90;;;;;;4365729;28;657543;-72
2023/06/18 02:15:11;;;;;;;17.50;11.70;;;10.40;99.90;;;;;;4333874;28;658267;-73
2023/06/18 02:17:58;;;;;;;17.95;12.73;;;10.40;99.90;;;;;;4373220;28;656779;-73
2023/06/18 02:20:47;;;;;;;19.00;13.48;;;10.40;99.90;;;;;;4346075;28;658139;-72
2023/06/18 02:23:34;;;;;;;25.63;14.70;;;10.40;99.90;;;;;;4368575;28;657737;-72
2023/06/18 02:26:21;;;;;;;20.70;14.47;;;10.40;99.90;;;;;;4344294;28;657524;-72
2023/06/18 02:29:08;;;;;;;22.87;14.93;;;10.30;99.90;;;;;;4371113;28;658702;-72
2023/06/18 02:31:55;;;;;;;23.27;15.57;;;10.30;99.90;;;;;;4340115;28;658452;-73
2023/06/18 02:34:43;;;;;;;20.97;15.10;;;10.30;99.90;;;;;;4367495;28;658280;-72
2023/06/18 02:37:32;;;;;;;23.80;14.37;;;10.30;99.90;;;;;;4342930;28;657577;-72
2023/06/18 02:40:19;;;;;;;20.53;14.00;;;10.20;99.90;;;;;;4369856;28;657686;-71
2023/06/18 02:43:08;;;;;;;21.45;13.40;;;10.20;99.90;;;;;;4347314;28;657334;-72
2023/06/18 02:45:55;;;;;;;19.63;12.60;;;10.10;99.90;;;;;;4348319;28;658958;-73
2023/06/18 02:48:43;;;;;;;20.50;13.03;;;10.10;99.90;;;;;;4359844;28;658351;-72
2023/06/18 02:51:30;;;;;;;19.57;12.80;;;10.20;99.90;;;;;;4358623;28;657901;-72
2023/06/18 02:54:20;;;;;;;22.37;12.57;;;10.10;99.90;;;;;;4368408;28;657865;-72
2023/06/18 02:57:07;;;;;;;22.07;14.10;;;10.10;99.90;;;;;;4342585;28;659399;-72
2023/06/18 02:59:54;;;;;;;23.70;14.43;;;10.10;99.90;;;;;;4371064;28;656805;-72
2023/06/18 03:02:42;;;;;;;19.97;12.90;;;10.10;99.90;;;;;;4347122;28;657822;-72
2023/06/18 03:05:29;;;;;;;22.43;14.83;;;10.10;99.90;;;;;;4353397;28;657625;-72
2023/06/18 03:08:16;;;;;;;24.40;14.67;;;10.10;99.90;;;;;;4345635;28;659074;-72
2023/06/18 03:11:05;;;;;;;23.33;15.30;;;10.20;99.90;;;;;;4366732;28;659013;-72
2023/06/18 03:13:52;;;;;;;23.70;14.00;;;10.20;99.90;;;;;;4344915;28;658695;-72
2023/06/18 03:16:39;;;;;;;21.67;14.23;;;10.20;99.90;;;;;;4359400;28;658830;-72
2023/06/18 03:19:27;;;;;;;25.73;15.47;;;10.20;99.90;;;;;;4346484;28;659186;-71
2023/06/18 03:22:14;;;;;;;35.37;20.23;;;10.20;99.90;;;;;;4358256;28;659434;-72
2023/06/18 03:25:02;;;;;;;36.57;19.40;;;10.40;99.90;;;;;;4346647;28;659057;-72
2023/06/18 03:27:51;;;;;;;30.93;18.33;;;10.60;99.90;;;;;;4364905;28;658258;-72
2023/06/18 03:30:38;;;;;;;23.97;16.03;;;10.60;99.90;;;;;;4339454;28;659218;-71
2023/06/18 03:33:29;;;;;;;26.00;16.40;;;10.60;99.90;;;;;;4343791;28;658762;-72
2023/06/18 03:36:17;;;;;;;26.00;17.60;;;10.50;99.90;;;;;;4342076;28;658926;-72
2023/06/18 03:39:04;;;;;;;27.40;18.80;;;10.60;99.90;;;;;;4353745;28;658793;-72
2023/06/18 03:41:51;;;;;;;29.83;17.43;;;10.60;99.90;;;;;;4341313;28;658367;-72
2023/06/18 03:44:40;;;;;;;27.00;16.67;;;10.60;99.90;;;;;;4363034;28;659019;-72
2023/06/18 03:47:28;;;;;;;25.33;16.47;;;10.70;99.90;;;;;;4340394;28;659478;-72
2023/06/18 03:50:15;;;;;;;25.93;17.33;;;10.70;99.90;;;;;;4354197;28;659082;-72
2023/06/18 03:53:03;;;;;;;27.67;18.30;;;10.70;99.90;;;;;;4367869;28;659059;-72
2023/06/18 03:55:50;;;;;;;28.70;19.30;;;10.80;99.90;;;;;;4356196;28;658858;-72
2023/06/18 03:58:38;;;;;;;29.40;18.80;;;10.90;99.90;;;;;;4356206;28;659215;-71
2023/06/18 04:01:27;;;;;;;25.27;17.83;;;11.00;99.90;;;;;;4354230;28;658902;-73
2023/06/18 04:04:14;;;;;;;29.90;18.47;;;11.10;99.90;;;;;;4365148;28;658825;-71
2023/06/18 04:07:01;;;;;;;28.90;17.98;;;11.20;99.90;;;;;;4347102;28;658250;-71
2023/06/18 04:09:49;;;;;;;29.40;18.77;;;11.30;99.90;;;;;;4364021;28;659816;-72
2023/06/18 04:12:36;;;;;;;28.10;18.07;;;11.40;99.90;;;;;;4343616;28;658767;-72
2023/06/18 04:15:23;;;;;;;28.77;19.07;;;11.60;99.90;;;;;;4351277;28;659500;-72
2023/06/18 04:18:13;;;;;;;34.13;20.20;;;11.70;99.90;;;;;;4351505;28;658574;-73
2023/06/18 04:21:00;;;;;;;33.07;20.30;;;11.80;99.90;;;;;;4342739;28;659131;-73
2023/06/18 04:23:47;;;;;;;36.00;21.77;;;12.00;99.90;;;;;;4366472;28;658870;-72
2023/06/18 04:26:35;;;;;;;32.13;19.83;;;12.20;99.90;;;;;;4380153;28;657830;-73
2023/06/18 04:29:22;;;;;;;30.67;18.87;;;12.30;99.90;;;;;;4359615;28;658943;-72
2023/06/18 04:32:10;;;;;;;27.53;19.63;;;12.50;99.90;;;;;;4364090;28;658922;-73
2023/06/18 04:34:59;;;;;;;33.13;17.97;;;12.70;99.90;;;;;;4404675;28;661206;-72
2023/06/18 04:37:46;;;;;;;25.17;16.93;;;12.80;99.90;;;;;;4353809;28;658323;-72
2023/06/18 04:40:34;;;;;;;26.13;17.97;;;13.00;99.90;;;;;;4383902;28;659568;-72
2023/06/18 04:43:21;;;;;;;26.37;17.47;;;13.20;99.90;;;;;;4362964;28;659219;-72
2023/06/18 04:46:08;;;;;;;26.20;17.00;;;13.40;99.90;;;;;;4386106;28;658471;-72
2023/06/18 04:48:59;;;;;;;25.20;16.33;;;13.60;99.90;;;;;;4363884;28;659709;-72
2023/06/18 04:51:47;;;;;;;24.80;16.00;;;13.60;99.90;;;;;;4361208;28;659153;-73
2023/06/18 04:54:35;;;;;;;27.30;18.03;;;13.70;99.90;;;;;;4374919;28;659054;-73
2023/06/18 04:57:23;;;;;;;30.13;17.87;;;13.70;99.90;;;;;;4380000;28;658538;-73
2023/06/18 05:00:11;;;;;;;30.60;18.60;;;13.80;99.90;;;;;;4362263;28;658560;-72
2023/06/18 05:02:58;;;;;;;27.95;18.05;;;13.90;99.90;;;;;;4387248;28;658839;-72
2023/06/18 05:05:46;;;;;;;27.00;17.97;;;13.90;99.90;;;;;;4362509;28;658931;-73
2023/06/18 05:08:34;;;;;;;25.00;17.70;;;14.10;99.90;;;;;;4382550;28;659897;-71
2023/06/18 05:11:22;;;;;;;29.23;18.97;;;14.20;99.90;;;;;;4363510;28;658761;-73
2023/06/18 05:14:09;;;;;;;29.67;17.75;;;14.40;99.90;;;;;;4384501;28;658680;-72
2023/06/18 05:16:56;;;;;;;29.03;18.57;;;14.60;99.90;;;;;;4366026;28;659361;-72
2023/06/18 05:19:43;;;;;;;26.92;18.52;;;14.70;99.90;;;;;;4389391;28;659206;-71
2023/06/18 05:22:31;;;;;;;28.30;18.93;;;14.80;99.90;;;;;;4362594;28;658884;-73
2023/06/18 05:25:19;;;;;;;32.73;18.87;;;15.00;99.90;;;;;;4385397;28;659009;-72
2023/06/18 05:28:06;;;;;;;27.23;17.47;;;15.10;99.90;;;;;;4360104;28;658498;-71
2023/06/18 05:30:54;;;;;;;30.40;18.03;;;15.20;99.90;;;;;;4376534;27;659732;-72
2023/06/18 05:33:41;;;;;;;30.27;17.27;;;15.40;99.90;;;;;;4362358;28;659001;-73
2023/06/18 05:36:28;;;;;;;26.50;15.80;;;15.50;99.90;;;;;;4383960;28;659219;-71
2023/06/18 05:39:16;;;;;;;26.73;15.20;;;15.60;99.90;;;;;;4366557;28;658709;-73
2023/06/18 05:42:05;;;;;;;25.97;16.27;;;15.80;99.90;;;;;;4388364;28;658546;-73
2023/06/18 05:44:54;;;;;;;28.90;15.90;;;15.90;99.90;;;;;;4358600;28;660546;-72
2023/06/18 05:47:41;;;;;;;24.23;15.87;;;16.00;99.90;;;;;;4353358;28;658973;-72
2023/06/18 05:50:28;;;;;;;24.33;15.10;;;16.10;99.90;;;;;;4389399;28;660814;-72
2023/06/18 05:53:16;;;;;;;24.43;15.70;;;16.30;99.90;;;;;;4363146;28;658789;-72
2023/06/18 05:56:03;;;;;;;19.40;12.77;;;16.40;99.90;;;;;;4386087;28;658871;-72
2023/06/18 05:58:53;;;;;;;22.30;13.80;;;16.50;99.90;;;;;;4361801;28;658627;-73
2023/06/18 06:01:40;;;;;;;27.30;15.73;;;16.70;99.90;;;;;;4365495;28;659525;-73
2023/06/18 06:04:28;;;;;;;24.03;15.67;;;16.70;99.90;;;;;;4386134;28;658821;-70
2023/06/18 06:07:15;;;;;;;33.20;18.20;;;16.70;99.90;;;;;;4366011;28;658419;-73
2023/06/18 06:10:02;;;;;;;37.77;23.10;;;16.70;99.90;;;;;;4382966;28;659609;-73
2023/06/18 06:12:50;;;;;;;36.40;22.37;;;16.80;99.90;;;;;;4378890;28;659723;-74
2023/06/18 06:15:39;;;;;;;34.53;22.90;;;16.90;99.90;;;;;;4382134;28;659642;-72
2023/06/18 06:18:26;;;;;;;35.43;22.13;;;17.00;99.90;;;;;;4337899;28;659569;-73
2023/06/18 06:21:14;;;;;;;33.07;20.80;;;16.80;99.90;;;;;;4380323;28;658421;-73
2023/06/18 06:24:01;;;;;;;37.17;20.70;;;17.00;99.90;;;;;;4352238;28;658961;-73
2023/06/18 06:26:49;;;;;;;29.17;19.50;;;17.20;99.90;;;;;;4388755;28;659966;-72
2023/06/18 06:29:36;;;;;;;25.30;16.33;;;17.50;99.90;;;;;;4362389;28;659196;-73
2023/06/18 06:32:25;;;;;;;26.53;15.70;;;17.50;99.90;;;;;;4381636;28;658914;-73
2023/06/18 06:35:12;;;;;;;23.30;15.00;;;17.80;99.90;;;;;;4365493;28;659598;-73
2023/06/18 06:38:00;;;;;;;22.40;15.63;;;18.10;99.90;;;;;;4383758;28;658793;-73
2023/06/18 06:40:47;;;;;;;22.57;15.37;;;18.40;99.90;;;;;;4352334;28;659017;-72
2023/06/18 06:43:34;;;;;;;21.43;14.33;;;18.50;99.90;;;;;;4389022;28;658525;-72
2023/06/18 06:46:21;;;;;;;22.02;13.25;;;18.60;99.90;;;;;;4369011;27;658771;-71
2023/06/18 06:49:10;;;;;;;20.60;11.27;;;18.80;99.90;;;;;;4381100;28;659979;-71
2023/06/18 06:51:57;;;;;;;15.43;9.90;;;19.00;99.90;;;;;;4364788;28;659821;-72
2023/06/18 06:54:46;;;;;;;17.30;10.30;;;19.20;99.90;;;;;;4385157;28;657823;-72
2023/06/18 06:57:34;;;;;;;13.77;9.43;;;19.20;99.90;;;;;;4353539;28;660940;-72
2023/06/18 07:00:21;;;;;;;16.60;9.80;;;19.20;99.90;;;;;;4362954;28;657139;-72
2023/06/18 07:03:08;;;;;;;12.45;8.43;;;19.10;99.90;;;;;;4383637;28;658961;-72
2023/06/18 07:05:57;;;;;;;17.47;9.20;;;19.40;99.90;;;;;;4361279;28;657625;-72
2023/06/18 07:08:44;;;;;;;14.60;8.67;;;19.70;99.90;;;;;;4380844;28;657850;-71
2023/06/18 07:11:32;;;;;;;15.83;9.67;;;19.80;99.90;;;;;;4362231;28;658299;-72
2023/06/18 07:14:20;;;;;;;16.03;9.67;;;19.30;99.90;;;;;;4367574;28;658033;-71
2023/06/18 07:17:08;;;;;;;11.40;8.00;;;19.40;99.90;;;;;;4383122;28;658056;-72
2023/06/18 07:19:55;;;;;;;13.37;8.47;;;19.70;99.90;;;;;;4368960;28;657453;-72
2023/06/18 07:22:44;;;;;;;10.50;6.83;;;19.70;99.90;;;;;;4375702;28;658258;-72
2023/06/18 07:25:31;;;;;;;13.57;7.70;;;19.90;99.90;;;;;;4366850;28;658050;-72
2023/06/18 07:28:18;;;;;;;12.83;9.10;;;20.00;99.90;;;;;;4381889;28;657596;-71
2023/06/18 07:31:05;;;;;;;11.70;7.53;;;19.90;99.90;;;;;;4348023;28;658307;-72
2023/06/18 07:33:53;;;;;;;12.77;8.17;;;19.40;99.90;;;;;;4384171;28;658729;-71
2023/06/18 07:36:40;;;;;;;10.83;8.17;;;19.50;99.90;;;;;;4368382;28;657359;-72
2023/06/18 07:39:29;;;;;;;12.13;7.80;;;19.80;99.90;;;;;;4381012;28;657038;-72
2023/06/18 07:42:16;;;;;;;14.27;8.40;;;19.60;99.90;;;;;;4370221;28;658356;-70
2023/06/18 07:45:04;;;;;;;13.80;7.50;;;19.10;99.90;;;;;;4369108;28;659122;-70
2023/06/18 07:47:51;;;;;;;10.20;7.13;;;19.00;99.90;;;;;;4359288;28;657145;-71
2023/06/18 07:50:38;;;;;;;11.07;7.00;;;18.80;99.90;;;;;;4374762;28;657825;-72
2023/06/18 07:53:25;;;;;;;14.07;7.20;;;18.80;99.90;;;;;;4360831;28;658114;-71
2023/06/18 07:56:14;;;;;;;9.60;6.70;;;18.50;99.90;;;;;;4387347;28;658256;-71
2023/06/18 07:59:01;;;;;;;12.23;7.00;;;18.40;99.90;;;;;;4358884;28;656629;-71
2023/06/18 08:01:48;;;;;;;9.63;6.80;;;18.30;99.90;;;;;;4378034;28;659033;-70
2023/06/18 08:04:36;;;;;;;11.27;7.17;;;18.20;99.90;;;;;;4362167;28;656234;-70
2023/06/18 08:07:23;;;;;;;12.53;7.23;;;18.20;99.90;;;;;;4370812;28;658362;-69
2023/06/18 08:10:10;;;;;;;26.50;7.03;;;18.30;99.90;;;;;;4351516;28;657332;-70
2023/06/18 08:12:59;;;;;;;9.00;6.43;;;18.30;99.90;;;;;;4385953;28;658205;-69
2023/06/18 08:15:46;;;;;;;11.50;6.73;;;18.50;99.90;;;;;;4356538;28;656643;-69
2023/06/18 08:18:34;;;;;;;8.53;6.27;;;18.90;99.90;;;;;;4361563;28;658298;-68
2023/06/18 08:21:22;;;;;;;8.80;6.10;;;18.70;99.90;;;;;;4356770;28;657112;-70
2023/06/18 08:24:09;;;;;;;9.60;6.70;;;19.00;99.90;;;;;;4369197;28;656273;-70
2023/06/18 08:26:56;;;;;;;9.50;6.60;;;19.40;99.90;;;;;;4360751;28;656897;-70
2023/06/18 08:29:45;;;;;;;7.60;5.23;;;19.70;99.90;;;;;;4383810;28;658007;-68
2023/06/18 08:32:32;;;;;;;4.93;4.07;;;20.10;99.90;;;;;;4358135;28;657590;-70
2023/06/18 08:35:20;;;;;;;8.23;4.40;;;20.20;99.90;;;;;;4378973;28;656538;-69
2023/06/18 08:38:07;;;;;;;10.53;4.90;;;20.30;99.90;;;;;;4367444;28;657227;-69
2023/06/18 08:40:58;;;;;;;8.70;5.50;;;20.70;99.90;;;;;;4373929;28;658538;-69
2023/06/18 08:43:45;;;;;;;7.83;5.77;;;20.70;99.90;;;;;;4339504;28;656453;-69
2023/06/18 08:46:35;;;;;;;7.10;4.93;;;21.20;99.90;;;;;;4383181;28;657395;-70
2023/06/18 08:49:23;;;;;;;8.80;5.47;;;21.10;99.90;;;;;;4364784;28;657663;-68
2023/06/18 08:52:10;;;;;;;9.47;5.50;;;21.30;99.90;;;;;;4375115;28;656602;-69
2023/06/18 08:55:01;;;;;;;9.07;4.87;;;21.30;99.90;;;;;;4384099;28;657526;-69
2023/06/18 08:57:52;;;;;;;6.73;5.53;;;21.40;99.90;;;;;;4355630;28;656601;-69
2023/06/18 09:00:40;;;;;;;8.17;5.73;;;21.10;99.90;;;;;;4363650;28;656124;-69
2023/06/18 09:03:28;;;;;;;5.40;4.63;;;20.80;99.90;;;;;;4361517;28;656724;-68
2023/06/18 09:06:15;;;;;;;8.87;6.10;;;20.70;99.90;;;;;;4362359;28;656505;-69
2023/06/18 09:09:04;;;;;;;10.23;5.13;;;20.60;99.90;;;;;;4382128;28;657434;-69
2023/06/18 09:11:51;;;;;;;7.53;5.60;;;21.10;99.90;;;;;;4362961;28;657153;-69
2023/06/18 09:14:38;;;;;;;7.17;5.30;;;21.90;99.90;;;;;;4383295;28;657891;-68
2023/06/18 09:17:25;;;;;;;7.80;5.60;;;22.40;99.90;;;;;;4359375;28;657112;-70
2023/06/18 09:20:14;;;;;;;7.40;5.20;;;22.70;99.90;;;;;;4379084;28;657769;-70
2023/06/18 09:23:07;;;;;;;6.97;5.23;;;22.30;99.90;;;;;;4362447;28;656688;-69
2023/06/18 09:25:55;;;;;;;10.20;6.23;;;22.10;99.90;;;;;;4362119;28;656567;-69
2023/06/18 09:28:42;;;;;;;7.93;5.93;;;21.60;99.90;;;;;;4359415;28;658011;-69
2023/06/18 09:31:29;;;;;;;10.03;6.00;;;20.80;99.90;;;;;;4388542;28;656799;-68
2023/06/18 09:34:18;;;;;;;19.43;6.00;;;20.50;99.90;;;;;;4360956;28;658322;-69
2023/06/18 09:37:07;;;;;;;7.30;5.40;;;20.10;99.90;;;;;;4363958;28;658373;-71
2023/06/18 09:39:56;;;;;;;8.53;5.97;;;20.20;99.90;;;;;;4386065;28;656457;-69
2023/06/18 09:42:43;;;;;;;9.30;5.60;;;20.00;99.90;;;;;;4364342;28;657430;-69
2023/06/18 09:45:30;;;;;;;6.93;4.90;;;20.70;99.90;;;;;;4368573;27;656689;-68
2023/06/18 09:48:18;;;;;;;7.43;4.87;;;20.90;99.90;;;;;;4381682;28;657419;-66
2023/06/18 09:51:06;;;;;;;6.87;4.57;;;20.50;99.90;;;;;;4365880;28;657265;-68
2023/06/18 09:53:57;;;;;;;7.83;4.30;;;20.20;99.90;;;;;;4386944;28;657446;-68
2023/06/18 09:56:56;;;;;;;8.07;4.27;;;20.10;99.90;;;;;;4359681;28;656784;-69
2023/06/18 09:59:43;;;;;;;6.53;4.60;;;19.30;99.90;;;;;;4364112;28;656918;-68
2023/06/18 10:02:30;;;;;;;6.40;4.77;;;19.30;99.90;;;;;;4368216;28;656488;-68
2023/06/18 10:05:18;;;;;;;6.60;4.43;;;19.60;99.90;;;;;;4379637;28;657383;-69
2023/06/18 10:08:06;;;;;;;6.57;5.10;;;19.60;99.90;;;;;;4381061;28;657049;-68
2023/06/18 10:10:54;;;;;;;7.83;5.20;;;19.70;99.90;;;;;;4379521;28;657158;-69
2023/06/18 10:13:51;;;;;;;8.07;5.40;;;19.90;99.90;;;;;;4360216;28;657045;-69
2023/06/18 10:16:41;;;;;;;7.87;5.93;;;19.80;99.90;;;;;;4360497;28;656399;-68
2023/06/18 10:19:31;;;;;;;7.70;5.30;;;19.80;99.90;;;;;;4358147;28;657729;-69
2023/06/18 10:22:18;;;;;;;6.43;5.10;;;20.40;99.90;;;;;;4358814;28;658478;-69
2023/06/18 10:25:06;;;;;;;8.83;5.93;;;20.70;99.90;;;;;;4363130;28;656449;-70
2023/06/18 10:27:55;;;;;;;9.13;5.47;;;20.70;99.90;;;;;;4379924;28;656950;-68
2023/06/18 10:30:42;;;;;;;10.53;5.07;;;21.30;99.90;;;;;;4362844;28;657065;-68
2023/06/18 10:33:33;;;;;;;7.43;5.13;;;21.80;99.90;;;;;;4380772;28;658043;-69
2023/06/18 10:36:20;;;;;;;10.83;5.60;;;22.10;99.90;;;;;;4346059;28;656444;-69
2023/06/18 10:39:08;;;;;;;8.93;5.57;;;21.90;99.90;;;;;;4380390;28;657625;-69
2023/06/18 10:41:55;;;;;;;6.97;5.03;;;22.00;99.90;;;;;;4378902;28;656738;-71
2023/06/18 10:44:57;;;;;;;7.67;5.43;;;22.20;99.90;;;;;;4383724;28;657362;-68
2023/06/18 10:47:44;;;;;;;6.53;5.50;;;22.10;99.90;;;;;;4347627;28;656632;-68
2023/06/18 10:50:32;;;;;;;9.50;5.30;;;22.50;99.90;;;;;;4363615;28;657873;-68
2023/06/18 10:53:22;;;;;;;8.10;5.87;;;22.60;99.90;;;;;;4385349;28;656373;-68
2023/06/18 10:56:10;;;;;;;9.00;5.43;;;22.70;99.90;;;;;;4362041;28;656542;-68
2023/06/18 10:58:57;;;;;;;9.20;5.63;;;22.70;99.90;;;;;;4364400;28;658172;-68
2023/06/18 11:01:47;;;;;;;9.70;5.60;;;21.90;99.90;;;;;;4381624;28;656071;-68
2023/06/18 11:04:35;;;;;;;15.90;5.43;;;21.80;99.90;;;;;;4351230;28;657225;-68
2023/06/18 11:07:23;;;;;;;7.57;5.60;;;22.00;99.90;;;;;;4351514;28;657470;-68
2023/06/18 11:10:11;;;;;;;5.87;5.17;;;22.40;99.90;;;;;;4361015;28;656538;-68
2023/06/18 11:12:58;;;;;;;7.07;5.40;;;22.00;99.90;;;;;;4379853;28;657917;-68
2023/06/18 11:15:58;;;;;;;7.20;4.73;;;21.70;99.90;;;;;;4360821;28;656832;-72
2023/06/18 11:18:46;;;;;;;6.40;5.03;;;22.40;99.90;;;;;;4343683;28;656492;-70
2023/06/18 11:21:34;;;;;;;6.40;5.23;;;22.70;99.90;;;;;;4383018;28;656473;-69
2023/06/18 11:24:21;;;;;;;8.30;5.63;;;22.90;99.90;;;;;;4359312;28;656975;-69
2023/06/18 11:27:08;;;;;;;6.90;5.27;;;23.30;99.90;;;;;;4383826;28;656965;-69
2023/06/18 11:29:56;;;;;;;6.23;5.10;;;24.00;99.80;;;;;;4367065;28;656581;-69
2023/06/18 11:32:43;;;;;;;5.97;5.03;;;24.40;92.70;;;;;;4377509;28;657410;-69
2023/06/18 11:35:32;;;;;;;7.85;5.13;;;24.10;90.30;;;;;;4365504;28;656873;-70
2023/06/18 11:38:19;;;;;;;5.88;5.18;;;23.80;91.70;;;;;;4386482;28;657243;-72
2023/06/18 11:41:06;;;;;;;7.03;5.23;;;24.30;91.20;;;;;;4366013;28;656506;-70
2023/06/18 11:43:55;;;;;;;7.47;5.60;;;23.70;90.30;;;;;;4396367;28;656797;-68
2023/06/18 11:46:42;;;;;;;6.45;5.20;;;23.10;91.00;;;;;;4362794;28;657624;-70
2023/06/18 11:49:30;;;;;;;5.80;4.65;;;23.80;89.50;;;;;;4372570;28;656556;-70
2023/06/18 11:52:20;;;;;;;5.47;4.65;;;24.30;82.10;;;;;;4357456;28;657174;-72
2023/06/18 11:55:08;;;;;;;8.40;4.10;;;24.60;76.50;;;;;;4359318;28;657514;-69
2023/06/18 11:57:59;;;;;;;5.65;4.13;;;24.00;75.10;;;;;;4357196;28;656546;-73
2023/06/18 12:00:47;;;;;;;5.43;4.25;;;24.80;72.30;;;;;;4363825;28;657795;-69
2023/06/18 12:03:35;;;;;;;5.40;4.20;;;24.60;70.20;;;;;;4378497;28;656266;-75
2023/06/18 12:06:22;;;;;;;6.63;4.27;;;23.70;75.50;;;;;;4359438;28;656544;-74
2023/06/18 12:09:11;;;;;;;5.97;4.47;;;22.80;82.50;;;;;;4381092;28;657247;-74
2023/06/18 12:12:04;;;;;;;6.33;4.70;;;22.70;82.50;;;;;;4349435;28;657533;-74
2023/06/18 12:14:54;;;;;;;6.80;5.20;;;22.50;84.30;;;;;;4332667;28;657016;-75
2023/06/18 12:17:47;;;;;;;6.27;5.07;;;22.50;91.70;;;;;;4359170;28;657379;-70
2023/06/18 12:20:35;;;;;;;6.07;5.13;;;22.10;96.80;;;;;;4360587;28;656368;-69
2023/06/18 12:23:22;;;;;;;8.23;5.63;;;22.30;97.00;;;;;;4357385;28;657178;-70
2023/06/18 12:26:11;;;;;;;6.73;5.60;;;21.90;96.50;;;;;;4379208;28;656288;-70
2023/06/18 12:28:59;;;;;;;7.27;5.27;;;21.80;96.40;;;;;;4379135;28;657055;-72
2023/06/18 12:32:01;;;;;;;7.27;5.13;;;22.00;97.50;;;;;;4358524;28;657018;-71
2023/06/18 12:34:48;;;;;;;8.30;5.73;;;22.20;95.00;;;;;;4359355;28;656512;-70
2023/06/18 12:37:36;;;;;;;6.43;5.17;;;23.00;93.20;;;;;;4363119;28;656806;-70
2023/06/18 12:40:25;;;;;;;5.75;4.80;;;24.10;91.70;;;;;;4379690;28;657576;-70
2023/06/18 12:43:15;;;;;;;5.03;4.47;;;24.50;84.70;;;;;;4357336;28;657771;-70
2023/06/18 12:46:03;;;;;;;7.40;4.07;;;24.90;81.80;;;;;;4361503;28;657739;-69
2023/06/18 12:48:51;;;;;;;4.57;3.80;;;25.00;75.90;;;;;;4355909;28;656327;-70
2023/06/18 12:51:41;;;;;;;4.68;3.83;;;25.30;64.70;;;;;;4380480;28;656486;-70
2023/06/18 12:54:29;;;;;;;3.75;3.38;;;24.80;61.20;;;;;;4356272;28;657498;-69
2023/06/18 12:57:16;;;;;;;4.20;3.13;;;24.90;65.00;;;;;;4365551;28;656785;-72
2023/06/18 13:00:15;;;;;;;5.07;3.22;;;24.50;59.70;;;;;;4384932;28;657348;-68
2023/06/18 13:03:02;;;;;;;3.40;3.10;;;24.60;59.20;;;;;;4338789;28;658282;-69
2023/06/18 13:05:50;;;;;;;8.18;3.55;;;24.90;61.50;;;;;;4368576;28;658246;-70
2023/06/18 13:08:37;;;;;;;7.07;3.42;;;25.20;60.00;;;;;;4362013;28;657961;-70
2023/06/18 13:11:24;;;;;;;4.10;3.17;;;26.10;65.10;;;;;;4380465;28;656819;-69
2023/06/18 13:14:12;;;;;;;5.07;3.70;;;25.80;58.20;;;;;;4362117;28;657128;-70
2023/06/18 13:17:03;;;;;;;3.88;3.50;;;25.90;58.30;;;;;;4383526;28;656772;-69
2023/06/18 13:19:50;;;;;;;6.07;4.00;;;25.50;59.00;;;;;;4341020;28;656995;-70
2023/06/18 13:22:37;;;;;;;6.22;3.78;;;25.00;61.60;;;;;;4373362;28;657972;-69
2023/06/18 13:25:25;;;;;;;4.45;3.92;;;24.90;61.70;;;;;;4376876;28;656579;-70
2023/06/18 13:28:12;;;;;;;4.47;3.95;;;24.90;63.50;;;;;;4383457;28;657500;-69
2023/06/18 13:31:00;;;;;;;4.50;4.10;;;24.70;62.00;;;;;;4382543;28;656810;-69
2023/06/18 13:33:49;;;;;;;4.80;4.18;;;25.10;64.30;;;;;;4389012;28;656824;-69
2023/06/18 13:36:36;;;;;;;4.53;3.90;;;25.70;60.00;;;;;;4366489;28;656704;-71
2023/06/18 13:39:24;;;;;;;6.10;4.40;;;25.80;61.10;;;;;;4378493;28;656496;-70
2023/06/18 13:42:11;;;;;;;7.82;4.43;;;26.00;60.10;;;;;;4363719;28;656616;-70
2023/06/18 13:44:59;;;;;;;6.82;4.43;;;24.80;60.10;;;;;;4383143;28;657195;-70
2023/06/18 13:47:46;;;;;;;5.13;4.40;;;25.00;61.70;;;;;;4365561;28;656753;-70
2023/06/18 13:50:35;;;;;;;6.78;4.85;;;25.00;59.20;;;;;;4384931;28;656518;-70
2023/06/18 13:53:22;;;;;;;5.25;4.43;;;24.10;62.50;;;;;;4365161;28;656883;-69
2023/06/18 13:56:10;;;;;;;7.43;4.55;;;24.50;63.90;;;;;;4383611;28;656623;-70
2023/06/18 13:58:57;;;;;;;6.35;4.43;;;24.90;60.80;;;;;;4362020;28;657335;-70
2023/06/18 14:01:44;;;;;;;7.45;4.53;;;25.40;62.40;;;;;;4381503;28;656479;-72
2023/06/18 14:04:35;;;;;;;4.53;4.00;;;24.60;61.20;;;;;;4369787;28;657317;-70
2023/06/18 14:07:24;;;;;;;7.07;4.35;;;24.50;62.70;;;;;;4364748;28;657105;-71
2023/06/18 14:10:12;;;;;;;6.75;4.60;;;24.80;63.80;;;;;;4367537;28;657322;-71